sensor_id;sensor_type;location;lat;lon;timestamp;P1;durP1;ratioP1;P2;durP2;ratioP2
37231;SDS011;23125;48.156;15.954;2023-04-29T00:00:01;14.85;;;10.48;;
37231;SDS011;23125;48.156;15.954;2023-04-29T00:02:34;13.27;;;10.10;;
37231;SDS011;23125;48.156;15.954;2023-04-29T00:05:00;11.02;;;9.20;;
37231;SDS011;23125;48.156;15.954;2023-04-29T00:07:29;12.13;;;9.65;;
37231;SDS011;23125;48.156;15.954;2023-04-29T00:09:58;12.93;;;9.20;;
37231;SDS011;23125;48.156;15.954;2023-04-29T00:12:25;11.18;;;8.90;;
37231;SDS011;23125;48.156;15.954;2023-04-29T00:14:50;9.55;;;7.75;;
37231;SDS011;23125;48.156;15.954;2023-04-29T00:17:17;9.43;;;7.50;;
37231;SDS011;23125;48.156;15.954;2023-04-29T00:19:43;10.00;;;7.05;;
37231;SDS011;23125;48.156;15.954;2023-04-29T00:22:09;9.35;;;5.45;;
37231;SDS011;23125;48.156;15.954;2023-04-29T00:24:35;11.45;;;7.65;;
37231;SDS011;23125;48.156;15.954;2023-04-29T00:27:01;9.02;;;7.57;;
37231;SDS011;23125;48.156;15.954;2023-04-29T00:29:27;7.47;;;5.82;;
37231;SDS011;23125;48.156;15.954;2023-04-29T00:31:54;8.05;;;6.45;;
37231;SDS011;23125;48.156;15.954;2023-04-29T00:34:19;7.20;;;5.93;;
37231;SDS011;23125;48.156;15.954;2023-04-29T00:36:45;7.80;;;6.45;;
37231;SDS011;23125;48.156;15.954;2023-04-29T00:39:12;8.50;;;6.03;;
37231;SDS011;23125;48.156;15.954;2023-04-29T00:41:38;7.20;;;5.65;;
37231;SDS011;23125;48.156;15.954;2023-04-29T00:44:04;7.60;;;5.55;;
37231;SDS011;23125;48.156;15.954;2023-04-29T00:46:30;5.47;;;4.57;;
37231;SDS011;23125;48.156;15.954;2023-04-29T00:48:57;6.25;;;4.22;;
37231;SDS011;23125;48.156;15.954;2023-04-29T00:51:24;5.38;;;4.30;;
37231;SDS011;23125;48.156;15.954;2023-04-29T00:53:51;5.45;;;3.85;;
37231;SDS011;23125;48.156;15.954;2023-04-29T00:56:18;3.88;;;3.10;;
37231;SDS011;23125;48.156;15.954;2023-04-29T00:58:49;3.78;;;3.05;;
37231;SDS011;23125;48.156;15.954;2023-04-29T01:01:17;4.22;;;2.90;;
37231;SDS011;23125;48.156;15.954;2023-04-29T01:03:44;3.08;;;2.63;;
37231;SDS011;23125;48.156;15.954;2023-04-29T01:11:34;3.42;;;2.33;;
37231;SDS011;23125;48.156;15.954;2023-04-29T01:14:04;2.95;;;2.33;;
37231;SDS011;23125;48.156;15.954;2023-04-29T01:16:46;2.28;;;1.83;;
37231;SDS011;23125;48.156;15.954;2023-04-29T01:22:06;1.50;;;1.23;;
37231;SDS011;23125;48.156;15.954;2023-04-29T01:24:31;3.00;;;1.60;;
37231;SDS011;23125;48.156;15.954;2023-04-29T01:27:16;1.75;;;1.50;;
37231;SDS011;23125;48.156;15.954;2023-04-29T01:32:54;2.35;;;1.40;;
37231;SDS011;23125;48.156;15.954;2023-04-29T01:38:40;1.45;;;1.33;;
37231;SDS011;23125;48.156;15.954;2023-04-29T01:41:13;2.03;;;1.65;;
37231;SDS011;23125;48.156;15.954;2023-04-29T01:43:43;2.38;;;1.63;;
37231;SDS011;23125;48.156;15.954;2023-04-29T01:46:15;1.52;;;1.25;;
37231;SDS011;23125;48.156;15.954;2023-04-29T01:48:44;1.75;;;1.63;;
37231;SDS011;23125;48.156;15.954;2023-04-29T01:51:11;1.48;;;1.17;;
37231;SDS011;23125;48.156;15.954;2023-04-29T01:53:37;2.00;;;1.40;;
37231;SDS011;23125;48.156;15.954;2023-04-29T01:56:06;2.00;;;1.27;;
37231;SDS011;23125;48.156;15.954;2023-04-29T01:58:32;2.63;;;1.00;;
37231;SDS011;23125;48.156;15.954;2023-04-29T02:00:58;3.08;;;1.05;;
37231;SDS011;23125;48.156;15.954;2023-04-29T02:03:24;1.25;;;0.90;;
37231;SDS011;23125;48.156;15.954;2023-04-29T02:05:50;1.33;;;0.95;;
37231;SDS011;23125;48.156;15.954;2023-04-29T02:08:16;1.35;;;0.80;;
37231;SDS011;23125;48.156;15.954;2023-04-29T02:10:55;3.78;;;0.90;;
37231;SDS011;23125;48.156;15.954;2023-04-29T02:13:23;1.40;;;0.70;;
37231;SDS011;23125;48.156;15.954;2023-04-29T02:15:49;1.13;;;0.65;;
37231;SDS011;23125;48.156;15.954;2023-04-29T02:18:15;1.00;;;0.55;;
37231;SDS011;23125;48.156;15.954;2023-04-29T02:20:41;2.28;;;0.82;;
37231;SDS011;23125;48.156;15.954;2023-04-29T02:23:07;1.60;;;0.70;;
37231;SDS011;23125;48.156;15.954;2023-04-29T02:25:34;2.90;;;0.60;;
37231;SDS011;23125;48.156;15.954;2023-04-29T02:28:00;0.80;;;0.60;;
37231;SDS011;23125;48.156;15.954;2023-04-29T02:30:26;1.33;;;0.50;;
37231;SDS011;23125;48.156;15.954;2023-04-29T02:32:52;0.93;;;0.57;;
37231;SDS011;23125;48.156;15.954;2023-04-29T02:35:18;2.50;;;0.70;;
37231;SDS011;23125;48.156;15.954;2023-04-29T02:37:45;1.77;;;0.52;;
37231;SDS011;23125;48.156;15.954;2023-04-29T02:40:11;0.60;;;0.50;;
37231;SDS011;23125;48.156;15.954;2023-04-29T02:42:37;1.10;;;0.85;;
37231;SDS011;23125;48.156;15.954;2023-04-29T02:45:03;5.25;;;1.08;;
37231;SDS011;23125;48.156;15.954;2023-04-29T02:47:29;1.27;;;0.65;;
37231;SDS011;23125;48.156;15.954;2023-04-29T02:49:55;2.35;;;0.80;;
37231;SDS011;23125;48.156;15.954;2023-04-29T02:52:21;3.33;;;0.77;;
37231;SDS011;23125;48.156;15.954;2023-04-29T02:54:47;8.55;;;1.15;;
37231;SDS011;23125;48.156;15.954;2023-04-29T02:57:13;2.65;;;0.80;;
37231;SDS011;23125;48.156;15.954;2023-04-29T02:59:39;2.17;;;0.77;;
37231;SDS011;23125;48.156;15.954;2023-04-29T03:02:04;2.30;;;0.70;;
37231;SDS011;23125;48.156;15.954;2023-04-29T03:04:30;3.22;;;0.63;;
37231;SDS011;23125;48.156;15.954;2023-04-29T03:06:56;1.85;;;0.80;;
37231;SDS011;23125;48.156;15.954;2023-04-29T03:09:22;3.58;;;0.50;;
37231;SDS011;23125;48.156;15.954;2023-04-29T03:11:48;2.67;;;0.90;;
37231;SDS011;23125;48.156;15.954;2023-04-29T03:14:14;1.88;;;0.70;;
37231;SDS011;23125;48.156;15.954;2023-04-29T03:16:41;2.05;;;0.88;;
37231;SDS011;23125;48.156;15.954;2023-04-29T03:19:07;2.90;;;0.60;;
37231;SDS011;23125;48.156;15.954;2023-04-29T03:21:33;1.58;;;0.70;;
37231;SDS011;23125;48.156;15.954;2023-04-29T03:23:59;1.10;;;0.77;;
37231;SDS011;23125;48.156;15.954;2023-04-29T03:26:25;2.08;;;0.70;;
37231;SDS011;23125;48.156;15.954;2023-04-29T03:28:50;1.48;;;0.70;;
37231;SDS011;23125;48.156;15.954;2023-04-29T03:31:16;2.38;;;0.70;;
37231;SDS011;23125;48.156;15.954;2023-04-29T03:33:43;1.25;;;0.70;;
37231;SDS011;23125;48.156;15.954;2023-04-29T03:36:08;1.20;;;0.60;;
37231;SDS011;23125;48.156;15.954;2023-04-29T03:38:34;2.13;;;0.70;;
37231;SDS011;23125;48.156;15.954;2023-04-29T03:41:00;5.63;;;1.05;;
37231;SDS011;23125;48.156;15.954;2023-04-29T03:43:27;1.30;;;0.70;;
37231;SDS011;23125;48.156;15.954;2023-04-29T03:45:53;3.97;;;1.08;;
37231;SDS011;23125;48.156;15.954;2023-04-29T03:48:19;1.30;;;0.80;;
37231;SDS011;23125;48.156;15.954;2023-04-29T03:50:45;2.25;;;0.82;;
37231;SDS011;23125;48.156;15.954;2023-04-29T03:53:12;3.58;;;0.95;;
37231;SDS011;23125;48.156;15.954;2023-04-29T03:55:38;2.63;;;1.50;;
37231;SDS011;23125;48.156;15.954;2023-04-29T03:58:04;1.77;;;1.00;;
37231;SDS011;23125;48.156;15.954;2023-04-29T04:00:30;1.70;;;0.95;;
37231;SDS011;23125;48.156;15.954;2023-04-29T04:02:57;1.63;;;1.13;;
37231;SDS011;23125;48.156;15.954;2023-04-29T04:05:23;2.63;;;1.40;;
37231;SDS011;23125;48.156;15.954;2023-04-29T04:07:50;2.17;;;1.17;;
37231;SDS011;23125;48.156;15.954;2023-04-29T04:10:17;1.50;;;1.05;;
37231;SDS011;23125;48.156;15.954;2023-04-29T04:12:43;1.70;;;0.93;;
37231;SDS011;23125;48.156;15.954;2023-04-29T04:15:09;1.95;;;1.23;;
37231;SDS011;23125;48.156;15.954;2023-04-29T04:17:35;2.20;;;0.90;;
37231;SDS011;23125;48.156;15.954;2023-04-29T04:20:02;1.10;;;0.60;;
37231;SDS011;23125;48.156;15.954;2023-04-29T04:22:28;1.40;;;0.80;;
37231;SDS011;23125;48.156;15.954;2023-04-29T04:24:54;1.35;;;0.80;;
37231;SDS011;23125;48.156;15.954;2023-04-29T04:27:21;1.58;;;0.60;;
37231;SDS011;23125;48.156;15.954;2023-04-29T04:29:47;1.00;;;0.60;;
37231;SDS011;23125;48.156;15.954;2023-04-29T04:32:13;2.05;;;1.00;;
37231;SDS011;23125;48.156;15.954;2023-04-29T04:34:39;1.92;;;0.70;;
37231;SDS011;23125;48.156;15.954;2023-04-29T04:37:05;0.98;;;0.70;;
37231;SDS011;23125;48.156;15.954;2023-04-29T04:39:31;1.73;;;0.90;;
37231;SDS011;23125;48.156;15.954;2023-04-29T04:41:57;2.58;;;0.85;;
37231;SDS011;23125;48.156;15.954;2023-04-29T04:44:23;1.42;;;0.70;;
37231;SDS011;23125;48.156;15.954;2023-04-29T04:46:51;1.33;;;0.68;;
37231;SDS011;23125;48.156;15.954;2023-04-29T04:49:17;1.10;;;0.60;;
37231;SDS011;23125;48.156;15.954;2023-04-29T04:51:43;1.70;;;0.77;;
37231;SDS011;23125;48.156;15.954;2023-04-29T04:54:09;1.17;;;0.85;;
37231;SDS011;23125;48.156;15.954;2023-04-29T04:56:36;1.23;;;0.77;;
37231;SDS011;23125;48.156;15.954;2023-04-29T04:59:02;0.95;;;0.52;;
37231;SDS011;23125;48.156;15.954;2023-04-29T05:01:29;0.70;;;0.50;;
37231;SDS011;23125;48.156;15.954;2023-04-29T05:03:55;3.40;;;1.02;;
37231;SDS011;23125;48.156;15.954;2023-04-29T05:06:23;1.15;;;0.65;;
37231;SDS011;23125;48.156;15.954;2023-04-29T05:08:48;1.10;;;0.63;;
37231;SDS011;23125;48.156;15.954;2023-04-29T05:11:20;1.20;;;0.63;;
37231;SDS011;23125;48.156;15.954;2023-04-29T05:13:47;1.38;;;0.52;;
37231;SDS011;23125;48.156;15.954;2023-04-29T05:16:13;1.52;;;0.95;;
37231;SDS011;23125;48.156;15.954;2023-04-29T05:18:42;1.13;;;0.77;;
37231;SDS011;23125;48.156;15.954;2023-04-29T05:21:10;1.20;;;0.70;;
37231;SDS011;23125;48.156;15.954;2023-04-29T05:23:36;1.60;;;0.95;;
37231;SDS011;23125;48.156;15.954;2023-04-29T05:26:03;0.90;;;0.70;;
37231;SDS011;23125;48.156;15.954;2023-04-29T05:28:29;1.48;;;0.70;;
37231;SDS011;23125;48.156;15.954;2023-04-29T05:30:55;1.48;;;0.73;;
37231;SDS011;23125;48.156;15.954;2023-04-29T05:33:21;2.17;;;0.60;;
37231;SDS011;23125;48.156;15.954;2023-04-29T05:35:47;0.68;;;0.50;;
37231;SDS011;23125;48.156;15.954;2023-04-29T05:38:13;2.13;;;0.60;;
37231;SDS011;23125;48.156;15.954;2023-04-29T05:40:39;1.63;;;0.82;;
37231;SDS011;23125;48.156;15.954;2023-04-29T05:43:05;1.10;;;0.60;;
37231;SDS011;23125;48.156;15.954;2023-04-29T05:45:31;1.65;;;0.90;;
37231;SDS011;23125;48.156;15.954;2023-04-29T05:47:57;1.05;;;0.60;;
37231;SDS011;23125;48.156;15.954;2023-04-29T05:50:23;2.05;;;0.60;;
37231;SDS011;23125;48.156;15.954;2023-04-29T05:52:49;1.00;;;0.77;;
37231;SDS011;23125;48.156;15.954;2023-04-29T05:55:16;1.80;;;0.88;;
37231;SDS011;23125;48.156;15.954;2023-04-29T05:57:42;1.33;;;1.00;;
37231;SDS011;23125;48.156;15.954;2023-04-29T06:00:08;1.60;;;1.00;;
37231;SDS011;23125;48.156;15.954;2023-04-29T06:02:35;1.25;;;0.80;;
37231;SDS011;23125;48.156;15.954;2023-04-29T06:05:02;1.02;;;0.80;;
37231;SDS011;23125;48.156;15.954;2023-04-29T06:07:28;1.00;;;0.70;;
37231;SDS011;23125;48.156;15.954;2023-04-29T06:09:54;1.17;;;0.75;;
37231;SDS011;23125;48.156;15.954;2023-04-29T06:12:21;1.23;;;0.98;;
37231;SDS011;23125;48.156;15.954;2023-04-29T06:14:46;1.75;;;0.77;;
37231;SDS011;23125;48.156;15.954;2023-04-29T06:17:12;1.35;;;0.47;;
37231;SDS011;23125;48.156;15.954;2023-04-29T06:19:39;1.23;;;0.50;;
37231;SDS011;23125;48.156;15.954;2023-04-29T06:22:05;1.25;;;0.60;;
37231;SDS011;23125;48.156;15.954;2023-04-29T06:24:30;1.23;;;0.80;;
37231;SDS011;23125;48.156;15.954;2023-04-29T06:26:56;0.93;;;0.50;;
37231;SDS011;23125;48.156;15.954;2023-04-29T06:29:22;0.70;;;0.45;;
37231;SDS011;23125;48.156;15.954;2023-04-29T06:31:48;0.68;;;0.45;;
37231;SDS011;23125;48.156;15.954;2023-04-29T06:34:15;0.98;;;0.70;;
37231;SDS011;23125;48.156;15.954;2023-04-29T06:36:41;1.85;;;0.82;;
37231;SDS011;23125;48.156;15.954;2023-04-29T06:39:07;0.60;;;0.47;;
37231;SDS011;23125;48.156;15.954;2023-04-29T06:41:32;1.35;;;1.05;;
37231;SDS011;23125;48.156;15.954;2023-04-29T06:43:59;1.25;;;1.15;;
37231;SDS011;23125;48.156;15.954;2023-04-29T06:46:25;1.60;;;1.50;;
37231;SDS011;23125;48.156;15.954;2023-04-29T06:48:52;1.58;;;1.48;;
37231;SDS011;23125;48.156;15.954;2023-04-29T06:51:18;0.60;;;0.45;;
37231;SDS011;23125;48.156;15.954;2023-04-29T06:53:43;1.13;;;0.30;;
37231;SDS011;23125;48.156;15.954;2023-04-29T06:56:11;0.30;;;0.20;;
37231;SDS011;23125;48.156;15.954;2023-04-29T06:58:37;0.70;;;0.30;;
37231;SDS011;23125;48.156;15.954;2023-04-29T07:01:03;0.60;;;0.30;;
37231;SDS011;23125;48.156;15.954;2023-04-29T07:03:31;7.68;;;7.30;;
37231;SDS011;23125;48.156;15.954;2023-04-29T07:05:57;4.53;;;4.30;;
37231;SDS011;23125;48.156;15.954;2023-04-29T07:08:23;0.30;;;0.20;;
37231;SDS011;23125;48.156;15.954;2023-04-29T07:10:55;1.42;;;0.40;;
37231;SDS011;23125;48.156;15.954;2023-04-29T07:13:22;1.40;;;0.20;;
37231;SDS011;23125;48.156;15.954;2023-04-29T07:15:49;0.30;;;0.17;;
37231;SDS011;23125;48.156;15.954;2023-04-29T07:18:15;0.47;;;0.30;;
37231;SDS011;23125;48.156;15.954;2023-04-29T07:20:41;0.43;;;0.30;;
37231;SDS011;23125;48.156;15.954;2023-04-29T07:23:07;0.35;;;0.30;;
37231;SDS011;23125;48.156;15.954;2023-04-29T07:25:33;0.95;;;0.40;;
37231;SDS011;23125;48.156;15.954;2023-04-29T07:28:00;0.40;;;0.28;;
37231;SDS011;23125;48.156;15.954;2023-04-29T07:30:26;0.40;;;0.30;;
37231;SDS011;23125;48.156;15.954;2023-04-29T07:32:52;0.50;;;0.20;;
37231;SDS011;23125;48.156;15.954;2023-04-29T07:35:18;0.50;;;0.20;;
37231;SDS011;23125;48.156;15.954;2023-04-29T07:37:44;0.43;;;0.20;;
37231;SDS011;23125;48.156;15.954;2023-04-29T07:40:10;0.52;;;0.20;;
37231;SDS011;23125;48.156;15.954;2023-04-29T07:42:37;1.35;;;0.30;;
37231;SDS011;23125;48.156;15.954;2023-04-29T07:45:03;0.30;;;0.20;;
37231;SDS011;23125;48.156;15.954;2023-04-29T07:47:29;0.35;;;0.10;;
37231;SDS011;23125;48.156;15.954;2023-04-29T07:49:55;0.82;;;0.13;;
37231;SDS011;23125;48.156;15.954;2023-04-29T07:52:22;0.93;;;0.10;;
37231;SDS011;23125;48.156;15.954;2023-04-29T07:54:48;1.60;;;0.20;;
37231;SDS011;23125;48.156;15.954;2023-04-29T07:57:14;1.45;;;0.05;;
37231;SDS011;23125;48.156;15.954;2023-04-29T07:59:40;0.20;;;0.10;;
37231;SDS011;23125;48.156;15.954;2023-04-29T08:02:06;1.40;;;0.00;;
37231;SDS011;23125;48.156;15.954;2023-04-29T08:04:32;0.75;;;0.10;;
37231;SDS011;23125;48.156;15.954;2023-04-29T08:06:58;1.08;;;0.10;;
37231;SDS011;23125;48.156;15.954;2023-04-29T08:09:24;0.20;;;0.03;;
37231;SDS011;23125;48.156;15.954;2023-04-29T08:11:50;0.20;;;0.10;;
37231;SDS011;23125;48.156;15.954;2023-04-29T08:14:16;0.35;;;0.10;;
37231;SDS011;23125;48.156;15.954;2023-04-29T08:16:42;0.88;;;0.17;;
37231;SDS011;23125;48.156;15.954;2023-04-29T08:19:08;1.48;;;0.30;;
37231;SDS011;23125;48.156;15.954;2023-04-29T08:21:34;0.15;;;0.13;;
37231;SDS011;23125;48.156;15.954;2023-04-29T08:24:00;0.90;;;0.22;;
37231;SDS011;23125;48.156;15.954;2023-04-29T08:26:26;0.40;;;0.20;;
37231;SDS011;23125;48.156;15.954;2023-04-29T08:28:52;0.57;;;0.20;;
37231;SDS011;23125;48.156;15.954;2023-04-29T08:31:18;0.68;;;0.20;;
37231;SDS011;23125;48.156;15.954;2023-04-29T08:33:46;1.17;;;0.43;;
37231;SDS011;23125;48.156;15.954;2023-04-29T08:36:12;1.70;;;0.30;;
37231;SDS011;23125;48.156;15.954;2023-04-29T08:38:39;1.20;;;0.35;;
37231;SDS011;23125;48.156;15.954;2023-04-29T08:41:07;1.48;;;0.43;;
37231;SDS011;23125;48.156;15.954;2023-04-29T08:43:34;0.98;;;0.30;;
37231;SDS011;23125;48.156;15.954;2023-04-29T08:46:02;2.25;;;0.40;;
37231;SDS011;23125;48.156;15.954;2023-04-29T08:48:29;0.70;;;0.22;;
37231;SDS011;23125;48.156;15.954;2023-04-29T08:50:55;0.70;;;0.20;;
37231;SDS011;23125;48.156;15.954;2023-04-29T08:53:22;0.80;;;0.28;;
37231;SDS011;23125;48.156;15.954;2023-04-29T08:55:49;1.10;;;0.32;;
37231;SDS011;23125;48.156;15.954;2023-04-29T08:58:15;2.03;;;0.30;;
37231;SDS011;23125;48.156;15.954;2023-04-29T09:00:41;0.98;;;0.20;;
37231;SDS011;23125;48.156;15.954;2023-04-29T09:06:07;0.75;;;0.30;;
37231;SDS011;23125;48.156;15.954;2023-04-29T09:08:38;1.77;;;0.40;;
37231;SDS011;23125;48.156;15.954;2023-04-29T09:11:07;3.08;;;0.45;;
37231;SDS011;23125;48.156;15.954;2023-04-29T09:13:36;0.88;;;0.40;;
37231;SDS011;23125;48.156;15.954;2023-04-29T09:16:02;0.60;;;0.35;;
37231;SDS011;23125;48.156;15.954;2023-04-29T09:18:46;3.83;;;2.20;;
37231;SDS011;23125;48.156;15.954;2023-04-29T09:24:05;2.15;;;0.40;;
37231;SDS011;23125;48.156;15.954;2023-04-29T09:26:34;1.42;;;0.50;;
37231;SDS011;23125;48.156;15.954;2023-04-29T09:29:08;1.52;;;1.00;;
37231;SDS011;23125;48.156;15.954;2023-04-29T09:31:38;1.25;;;0.40;;
37231;SDS011;23125;48.156;15.954;2023-04-29T09:34:06;1.65;;;0.20;;
37231;SDS011;23125;48.156;15.954;2023-04-29T09:39:20;1.38;;;0.22;;
37231;SDS011;23125;48.156;15.954;2023-04-29T09:44:20;0.28;;;0.10;;
37231;SDS011;23125;48.156;15.954;2023-04-29T09:52:03;0.63;;;0.30;;
37231;SDS011;23125;48.156;15.954;2023-04-29T09:54:42;1.27;;;0.30;;
37231;SDS011;23125;48.156;15.954;2023-04-29T09:57:09;1.27;;;0.30;;
37231;SDS011;23125;48.156;15.954;2023-04-29T09:59:37;0.43;;;0.30;;
37231;SDS011;23125;48.156;15.954;2023-04-29T10:02:14;1.60;;;0.60;;
37231;SDS011;23125;48.156;15.954;2023-04-29T10:04:47;1.00;;;0.70;;
37231;SDS011;23125;48.156;15.954;2023-04-29T10:07:21;2.80;;;1.23;;
37231;SDS011;23125;48.156;15.954;2023-04-29T10:09:47;1.52;;;1.10;;
37231;SDS011;23125;48.156;15.954;2023-04-29T10:12:17;1.20;;;1.02;;
37231;SDS011;23125;48.156;15.954;2023-04-29T10:14:46;0.80;;;0.68;;
37231;SDS011;23125;48.156;15.954;2023-04-29T10:18:02;1.90;;;1.20;;
37231;SDS011;23125;48.156;15.954;2023-04-29T10:20:12;2.47;;;1.23;;
37231;SDS011;23125;48.156;15.954;2023-04-29T10:22:45;1.55;;;1.02;;
37231;SDS011;23125;48.156;15.954;2023-04-29T10:25:14;1.50;;;1.00;;
37231;SDS011;23125;48.156;15.954;2023-04-29T10:27:43;2.40;;;0.90;;
37231;SDS011;23125;48.156;15.954;2023-04-29T10:30:12;2.20;;;1.00;;
37231;SDS011;23125;48.156;15.954;2023-04-29T10:32:41;1.38;;;1.20;;
37231;SDS011;23125;48.156;15.954;2023-04-29T10:35:08;1.52;;;1.10;;
37231;SDS011;23125;48.156;15.954;2023-04-29T10:37:36;1.55;;;1.13;;
37231;SDS011;23125;48.156;15.954;2023-04-29T10:40:09;2.67;;;1.50;;
37231;SDS011;23125;48.156;15.954;2023-04-29T10:42:45;3.45;;;2.90;;
37231;SDS011;23125;48.156;15.954;2023-04-29T10:45:17;2.10;;;1.30;;
37231;SDS011;23125;48.156;15.954;2023-04-29T10:50:31;3.22;;;1.90;;
37231;SDS011;23125;48.156;15.954;2023-04-29T10:53:00;1.65;;;1.30;;
37231;SDS011;23125;48.156;15.954;2023-04-29T10:55:28;2.42;;;1.50;;
37231;SDS011;23125;48.156;15.954;2023-04-29T10:57:55;1.95;;;1.40;;
37231;SDS011;23125;48.156;15.954;2023-04-29T11:00:31;1.40;;;0.90;;
37231;SDS011;23125;48.156;15.954;2023-04-29T11:03:01;1.63;;;1.52;;
37231;SDS011;23125;48.156;15.954;2023-04-29T11:10:41;3.13;;;1.60;;
37231;SDS011;23125;48.156;15.954;2023-04-29T11:13:26;2.88;;;2.33;;
37231;SDS011;23125;48.156;15.954;2023-04-29T11:16:07;3.15;;;1.70;;
37231;SDS011;23125;48.156;15.954;2023-04-29T11:18:35;3.72;;;1.80;;
37231;SDS011;23125;48.156;15.954;2023-04-29T11:21:16;5.60;;;1.65;;
37231;SDS011;23125;48.156;15.954;2023-04-29T11:23:42;2.97;;;1.70;;
37231;SDS011;23125;48.156;15.954;2023-04-29T11:26:09;2.75;;;1.95;;
37231;SDS011;23125;48.156;15.954;2023-04-29T11:28:35;2.90;;;1.52;;
37231;SDS011;23125;48.156;15.954;2023-04-29T11:31:02;3.72;;;1.58;;
37231;SDS011;23125;48.156;15.954;2023-04-29T11:33:30;2.28;;;1.65;;
37231;SDS011;23125;48.156;15.954;2023-04-29T11:38:24;2.10;;;1.38;;
37231;SDS011;23125;48.156;15.954;2023-04-29T11:40:56;2.20;;;1.42;;
37231;SDS011;23125;48.156;15.954;2023-04-29T11:43:23;2.65;;;1.55;;
37231;SDS011;23125;48.156;15.954;2023-04-29T11:45:50;2.35;;;1.38;;
37231;SDS011;23125;48.156;15.954;2023-04-29T11:48:21;1.70;;;1.25;;
37231;SDS011;23125;48.156;15.954;2023-04-29T11:50:49;2.50;;;1.30;;
37231;SDS011;23125;48.156;15.954;2023-04-29T11:53:20;2.97;;;1.50;;
37231;SDS011;23125;48.156;15.954;2023-04-29T11:55:49;2.10;;;1.10;;
37231;SDS011;23125;48.156;15.954;2023-04-29T11:58:23;3.05;;;1.67;;
37231;SDS011;23125;48.156;15.954;2023-04-29T12:00:49;2.17;;;1.45;;
37231;SDS011;23125;48.156;15.954;2023-04-29T12:03:19;2.80;;;1.48;;
37231;SDS011;23125;48.156;15.954;2023-04-29T12:05:46;2.35;;;1.67;;
37231;SDS011;23125;48.156;15.954;2023-04-29T12:08:25;2.33;;;1.45;;
37231;SDS011;23125;48.156;15.954;2023-04-29T12:10:53;2.13;;;1.42;;
37231;SDS011;23125;48.156;15.954;2023-04-29T12:13:27;1.90;;;1.40;;
37231;SDS011;23125;48.156;15.954;2023-04-29T12:15:54;2.55;;;1.73;;
37231;SDS011;23125;48.156;15.954;2023-04-29T12:18:22;2.78;;;1.50;;
37231;SDS011;23125;48.156;15.954;2023-04-29T12:20:49;2.35;;;1.40;;
37231;SDS011;23125;48.156;15.954;2023-04-29T12:23:20;1.73;;;1.30;;
37231;SDS011;23125;48.156;15.954;2023-04-29T12:25:48;1.80;;;1.70;;
37231;SDS011;23125;48.156;15.954;2023-04-29T12:28:16;2.33;;;1.80;;
37231;SDS011;23125;48.156;15.954;2023-04-29T12:30:49;3.17;;;1.58;;
37231;SDS011;23125;48.156;15.954;2023-04-29T12:33:18;4.30;;;1.60;;
37231;SDS011;23125;48.156;15.954;2023-04-29T12:35:51;2.55;;;1.40;;
37231;SDS011;23125;48.156;15.954;2023-04-29T12:38:26;4.15;;;1.58;;
37231;SDS011;23125;48.156;15.954;2023-04-29T12:40:59;2.45;;;1.42;;
37231;SDS011;23125;48.156;15.954;2023-04-29T12:43:29;2.65;;;1.65;;
37231;SDS011;23125;48.156;15.954;2023-04-29T12:46:07;6.40;;;1.88;;
37231;SDS011;23125;48.156;15.954;2023-04-29T12:48:34;1.48;;;1.13;;
37231;SDS011;23125;48.156;15.954;2023-04-29T12:51:10;2.45;;;1.75;;
37231;SDS011;23125;48.156;15.954;2023-04-29T12:53:37;3.92;;;1.75;;
37231;SDS011;23125;48.156;15.954;2023-04-29T12:56:04;2.85;;;1.60;;
37231;SDS011;23125;48.156;15.954;2023-04-29T12:58:30;2.22;;;1.33;;
37231;SDS011;23125;48.156;15.954;2023-04-29T13:00:59;2.17;;;1.40;;
37231;SDS011;23125;48.156;15.954;2023-04-29T13:03:25;1.92;;;1.33;;
37231;SDS011;23125;48.156;15.954;2023-04-29T13:05:50;2.30;;;1.45;;
37231;SDS011;23125;48.156;15.954;2023-04-29T13:08:19;1.95;;;1.60;;
37231;SDS011;23125;48.156;15.954;2023-04-29T13:10:45;1.85;;;1.42;;
37231;SDS011;23125;48.156;15.954;2023-04-29T13:13:11;2.17;;;1.42;;
37231;SDS011;23125;48.156;15.954;2023-04-29T13:15:37;3.40;;;1.70;;
37231;SDS011;23125;48.156;15.954;2023-04-29T13:18:05;1.88;;;1.40;;
37231;SDS011;23125;48.156;15.954;2023-04-29T13:20:31;2.50;;;1.35;;
37231;SDS011;23125;48.156;15.954;2023-04-29T13:22:58;2.55;;;1.20;;
37231;SDS011;23125;48.156;15.954;2023-04-29T13:25:24;2.53;;;1.38;;
37231;SDS011;23125;48.156;15.954;2023-04-29T13:27:50;3.67;;;2.10;;
37231;SDS011;23125;48.156;15.954;2023-04-29T13:30:16;5.90;;;2.00;;
37231;SDS011;23125;48.156;15.954;2023-04-29T13:32:41;3.60;;;2.20;;
37231;SDS011;23125;48.156;15.954;2023-04-29T13:35:08;2.53;;;2.20;;
37231;SDS011;23125;48.156;15.954;2023-04-29T13:37:34;3.63;;;2.38;;
37231;SDS011;23125;48.156;15.954;2023-04-29T13:40:00;5.68;;;2.63;;
37231;SDS011;23125;48.156;15.954;2023-04-29T13:42:26;3.33;;;1.80;;
37231;SDS011;23125;48.156;15.954;2023-04-29T13:44:52;2.10;;;1.83;;
37231;SDS011;23125;48.156;15.954;2023-04-29T13:47:21;2.55;;;1.70;;
37231;SDS011;23125;48.156;15.954;2023-04-29T13:49:47;3.53;;;2.10;;
37231;SDS011;23125;48.156;15.954;2023-04-29T13:52:14;2.97;;;1.85;;
37231;SDS011;23125;48.156;15.954;2023-04-29T13:54:39;3.05;;;2.33;;
37231;SDS011;23125;48.156;15.954;2023-04-29T13:57:06;3.20;;;2.40;;
37231;SDS011;23125;48.156;15.954;2023-04-29T13:59:32;3.75;;;2.20;;
37231;SDS011;23125;48.156;15.954;2023-04-29T14:02:00;2.33;;;1.80;;
37231;SDS011;23125;48.156;15.954;2023-04-29T14:04:27;1.95;;;1.48;;
37231;SDS011;23125;48.156;15.954;2023-04-29T14:06:54;2.63;;;1.80;;
37231;SDS011;23125;48.156;15.954;2023-04-29T14:09:20;2.88;;;1.77;;
37231;SDS011;23125;48.156;15.954;2023-04-29T14:11:47;3.92;;;2.05;;
37231;SDS011;23125;48.156;15.954;2023-04-29T14:14:14;2.45;;;1.77;;
37231;SDS011;23125;48.156;15.954;2023-04-29T14:16:41;2.50;;;1.30;;
37231;SDS011;23125;48.156;15.954;2023-04-29T14:19:08;2.97;;;1.35;;
37231;SDS011;23125;48.156;15.954;2023-04-29T14:21:33;2.47;;;1.17;;
37231;SDS011;23125;48.156;15.954;2023-04-29T14:24:00;2.25;;;1.40;;
37231;SDS011;23125;48.156;15.954;2023-04-29T14:26:29;1.70;;;1.13;;
37231;SDS011;23125;48.156;15.954;2023-04-29T14:28:56;1.33;;;1.10;;
37231;SDS011;23125;48.156;15.954;2023-04-29T14:31:26;0.80;;;0.73;;
37231;SDS011;23125;48.156;15.954;2023-04-29T14:33:54;1.20;;;0.82;;
37231;SDS011;23125;48.156;15.954;2023-04-29T14:36:21;1.65;;;0.93;;
37231;SDS011;23125;48.156;15.954;2023-04-29T14:38:47;1.73;;;1.25;;
37231;SDS011;23125;48.156;15.954;2023-04-29T14:41:13;2.83;;;1.10;;
37231;SDS011;23125;48.156;15.954;2023-04-29T14:43:39;1.48;;;0.98;;
37231;SDS011;23125;48.156;15.954;2023-04-29T14:46:06;1.70;;;0.82;;
37231;SDS011;23125;48.156;15.954;2023-04-29T14:48:32;1.33;;;0.70;;
37231;SDS011;23125;48.156;15.954;2023-04-29T14:50:59;3.63;;;1.40;;
37231;SDS011;23125;48.156;15.954;2023-04-29T14:53:25;1.02;;;0.60;;
37231;SDS011;23125;48.156;15.954;2023-04-29T14:55:51;1.40;;;0.75;;
37231;SDS011;23125;48.156;15.954;2023-04-29T14:58:17;1.73;;;0.70;;
37231;SDS011;23125;48.156;15.954;2023-04-29T15:00:43;1.40;;;0.90;;
37231;SDS011;23125;48.156;15.954;2023-04-29T15:03:09;1.85;;;1.08;;
37231;SDS011;23125;48.156;15.954;2023-04-29T15:05:35;2.33;;;0.70;;
37231;SDS011;23125;48.156;15.954;2023-04-29T15:08:01;1.67;;;0.88;;
37231;SDS011;23125;48.156;15.954;2023-04-29T15:10:27;1.92;;;0.90;;
37231;SDS011;23125;48.156;15.954;2023-04-29T15:12:54;1.38;;;1.13;;
37231;SDS011;23125;48.156;15.954;2023-04-29T15:15:21;1.42;;;0.70;;